createdAt,value
2023-05-01T00:00:29.783Z,0.00
2023-05-01T00:01:29.876Z,0.00
2023-05-01T00:02:30.038Z,0.00
2023-05-01T00:03:30.340Z,0.00
2023-05-01T00:04:30.397Z,0.00
2023-05-01T00:05:30.589Z,0.00
2023-05-01T00:06:30.921Z,0.00
2023-05-01T00:07:30.548Z,0.00
2023-05-01T00:08:30.645Z,0.00
2023-05-01T00:09:30.821Z,0.00
2023-05-01T00:10:31.174Z,0.00
2023-05-01T00:11:31.007Z,0.00
2023-05-01T00:12:31.116Z,0.00
2023-05-01T00:13:31.393Z,0.00
2023-05-01T00:14:31.392Z,0.00
2023-05-01T00:15:31.437Z,0.00
2023-05-01T00:16:31.581Z,0.00
2023-05-01T00:17:31.655Z,0.00
2023-05-01T00:18:31.749Z,0.00
2023-05-01T00:19:31.900Z,0.00
2023-05-01T00:20:35.093Z,0.00
2023-05-01T00:21:32.138Z,0.00
2023-05-01T00:22:32.630Z,0.00
2023-05-01T00:23:32.349Z,0.00
2023-05-01T00:24:32.478Z,0.00
2023-05-01T00:25:32.612Z,0.00
2023-05-01T00:26:32.733Z,0.00
2023-05-01T00:27:32.888Z,0.00
2023-05-01T00:28:33.066Z,0.00
2023-05-01T00:29:33.100Z,0.00
2023-05-01T00:30:33.233Z,0.00
2023-05-01T00:31:33.613Z,0.00
2023-05-01T00:32:33.626Z,0.00
2023-05-01T00:33:33.588Z,0.00
2023-05-01T00:34:33.690Z,0.00
2023-05-01T00:35:33.806Z,0.00
2023-05-01T00:36:33.915Z,0.00
2023-05-01T00:37:34.188Z,0.00
2023-05-01T00:38:34.232Z,0.00
2023-05-01T00:39:34.313Z,0.00
2023-05-01T00:40:34.393Z,0.00
2023-05-01T00:41:34.553Z,0.00
2023-05-01T00:42:34.672Z,0.00
2023-05-01T00:43:34.864Z,0.00
2023-05-01T00:44:34.936Z,0.00
2023-05-01T00:45:35.322Z,0.00
2023-05-01T00:46:35.292Z,0.00
2023-05-01T00:47:35.323Z,0.00
2023-05-01T00:48:35.489Z,0.00
2023-05-01T00:49:35.641Z,0.00
2023-05-01T00:50:35.632Z,0.00
2023-05-01T00:51:35.952Z,0.00
2023-05-01T00:52:35.985Z,0.00
2023-05-01T00:53:36.443Z,0.00
2023-05-01T00:54:36.183Z,0.00
2023-05-01T00:55:36.735Z,0.00
2023-05-01T00:56:36.437Z,0.00
2023-05-01T00:57:36.554Z,0.00
2023-05-01T00:58:36.667Z,0.00
2023-05-01T00:59:36.820Z,0.00
2023-05-01T01:00:36.987Z,0.00
2023-05-01T01:01:37.244Z,0.00
2023-05-01T01:02:37.339Z,0.00
2023-05-01T01:03:37.411Z,0.00
2023-05-01T01:04:37.513Z,0.00
2023-05-01T01:05:37.615Z,0.00
2023-05-01T01:06:37.719Z,0.00
2023-05-01T01:07:37.821Z,0.00
2023-05-01T01:08:37.993Z,0.00
2023-05-01T01:09:38.123Z,0.00
2023-05-01T01:10:38.196Z,0.00
2023-05-01T01:11:38.303Z,0.00
2023-05-01T01:12:38.608Z,0.00
2023-05-01T01:13:38.664Z,0.00
2023-05-01T01:14:38.697Z,0.00
2023-05-01T01:15:38.829Z,0.00
2023-05-01T01:16:38.966Z,0.00
2023-05-01T01:17:39.202Z,0.00
2023-05-01T01:18:39.191Z,0.00
2023-05-01T01:19:39.426Z,0.00
2023-05-01T01:20:39.649Z,0.00
2023-05-01T01:21:39.603Z,0.00
2023-05-01T01:22:39.736Z,0.00
2023-05-01T01:23:39.831Z,0.00
2023-05-01T01:24:39.953Z,0.00
2023-05-01T01:25:40.266Z,0.00
2023-05-01T01:26:40.226Z,0.00
2023-05-01T01:27:40.351Z,0.00
2023-05-01T01:28:40.525Z,0.00
2023-05-01T01:29:40.659Z,0.00
2023-05-01T01:30:40.729Z,0.00
2023-05-01T01:31:41.046Z,0.00
2023-05-01T01:32:41.050Z,0.00
2023-05-01T01:33:41.195Z,0.00
2023-05-01T01:34:41.222Z,0.00
2023-05-01T01:35:41.352Z,0.00
2023-05-01T01:36:41.465Z,0.00
2023-05-01T01:37:41.568Z,0.00
2023-05-01T01:38:41.752Z,0.00
2023-05-01T01:39:41.835Z,0.00
2023-05-01T01:40:41.960Z,0.00
2023-05-01T01:41:42.043Z,0.00
2023-05-01T01:42:42.218Z,0.00
2023-05-01T01:43:42.355Z,0.00
2023-05-01T01:44:42.674Z,0.00
2023-05-01T01:45:42.552Z,0.00
2023-05-01T01:46:42.841Z,0.00
2023-05-01T01:47:42.883Z,0.00
2023-05-01T01:48:42.909Z,0.00
2023-05-01T01:49:43.174Z,0.00
2023-05-01T01:50:43.154Z,0.00
2023-05-01T01:51:43.270Z,0.00
2023-05-01T01:52:43.441Z,0.00
2023-05-01T01:53:43.517Z,0.00
2023-05-01T01:54:43.673Z,0.00
2023-05-01T01:55:43.766Z,0.00
2023-05-01T01:56:43.861Z,0.00
2023-05-01T01:57:43.975Z,0.00
2023-05-01T01:58:44.146Z,0.00
2023-05-01T01:59:44.280Z,0.00
2023-05-01T02:00:44.346Z,0.00
2023-05-01T02:01:44.581Z,0.00
2023-05-01T02:02:44.849Z,0.00
2023-05-01T02:03:44.880Z,0.00
2023-05-01T02:04:44.846Z,0.00
2023-05-01T02:05:45.052Z,0.00
2023-05-01T02:06:45.186Z,0.00
2023-05-01T02:07:45.223Z,0.00
2023-05-01T02:08:45.338Z,0.00
2023-05-01T02:09:45.533Z,0.00
2023-05-01T02:10:45.569Z,0.00
2023-05-01T02:11:45.749Z,0.00
2023-05-01T02:12:45.798Z,0.00
2023-05-01T02:13:45.974Z,0.00
2023-05-01T02:14:46.031Z,0.00
2023-05-01T02:15:46.188Z,0.00
2023-05-01T02:16:46.245Z,0.00
2023-05-01T02:17:46.574Z,0.00
2023-05-01T02:18:46.676Z,0.00
2023-05-01T02:19:46.661Z,0.00
2023-05-01T02:20:46.785Z,0.00
2023-05-01T02:21:46.982Z,0.00
2023-05-01T02:22:46.991Z,0.00
2023-05-01T02:23:47.192Z,0.00
2023-05-01T02:24:47.273Z,0.00
2023-05-01T02:25:47.496Z,0.00
2023-05-01T02:26:47.467Z,0.00
2023-05-01T02:27:47.600Z,0.00
2023-05-01T02:28:47.792Z,0.00
2023-05-01T02:29:47.860Z,0.00
2023-05-01T02:30:47.969Z,0.00
2023-05-01T02:31:48.212Z,0.00
2023-05-01T02:32:48.452Z,0.00
2023-05-01T02:33:48.337Z,0.00
2023-05-01T02:34:48.556Z,0.00
2023-05-01T02:35:48.596Z,0.00
2023-05-01T02:36:48.724Z,0.00
2023-05-01T02:37:48.836Z,0.00
2023-05-01T02:38:48.947Z,0.00
2023-05-01T02:39:49.241Z,0.00
2023-05-01T02:40:49.335Z,0.00
2023-05-01T02:41:49.363Z,0.00
2023-05-01T02:42:49.489Z,0.00
2023-05-01T02:43:49.624Z,0.00
2023-05-01T02:44:49.838Z,0.00
2023-05-01T02:45:49.909Z,0.00
2023-05-01T02:46:50.078Z,0.00
2023-05-01T02:47:50.158Z,0.00
2023-05-01T02:48:50.245Z,0.00
2023-05-01T02:49:50.561Z,0.00
2023-05-01T02:50:50.569Z,0.00
2023-05-01T02:51:50.699Z,0.00
2023-05-01T02:52:50.785Z,0.00
2023-05-01T02:53:50.974Z,0.00
2023-05-01T02:54:51.050Z,0.00
2023-05-01T02:55:51.166Z,0.00
2023-05-01T02:56:51.335Z,0.00
2023-05-01T02:57:51.432Z,0.00
2023-05-01T02:58:51.701Z,0.00
2023-05-01T02:59:51.752Z,0.00
2023-05-01T03:00:51.917Z,0.00
2023-05-01T03:01:52.085Z,0.00
2023-05-01T03:02:52.141Z,0.00
2023-05-01T03:03:52.325Z,0.00
2023-05-01T03:04:52.442Z,0.00
2023-05-01T03:05:52.594Z,0.00
2023-05-01T03:06:52.752Z,0.00
2023-05-01T03:07:52.837Z,0.00
2023-05-01T03:08:53.211Z,0.00
2023-05-01T03:09:53.233Z,0.00
2023-05-01T03:10:53.168Z,0.00
2023-05-01T03:11:53.399Z,0.00
2023-05-01T03:12:53.531Z,0.00
2023-05-01T03:13:53.568Z,0.00
2023-05-01T03:14:53.790Z,0.00
2023-05-01T03:15:53.898Z,0.00
2023-05-01T03:16:54.155Z,0.00
2023-05-01T03:17:54.129Z,0.00
2023-05-01T03:18:54.261Z,0.00
2023-05-01T03:19:54.699Z,0.00
2023-05-01T03:20:54.505Z,0.00
2023-05-01T03:21:54.650Z,0.00
2023-05-01T03:22:54.836Z,0.00
2023-05-01T03:23:54.930Z,0.00
2023-05-01T03:24:55.001Z,0.00
2023-05-01T03:25:55.102Z,0.00
2023-05-01T03:26:55.245Z,0.00
2023-05-01T03:27:55.556Z,0.00
2023-05-01T03:28:55.568Z,0.00
2023-05-01T03:29:55.979Z,0.00
2023-05-01T03:30:55.769Z,0.00
2023-05-01T03:31:55.976Z,0.00
2023-05-01T03:32:56.063Z,0.00
2023-05-01T03:33:56.174Z,0.00
2023-05-01T03:34:56.391Z,4.00
2023-05-01T03:35:56.424Z,4.00
2023-05-01T03:36:56.606Z,4.00
2023-05-01T03:37:56.893Z,4.00
2023-05-01T03:38:56.808Z,4.00
2023-05-01T03:39:57.320Z,0.00
2023-05-01T03:40:57.120Z,0.00
2023-05-01T03:41:57.604Z,4.00
2023-05-01T03:42:57.548Z,4.00
2023-05-01T03:43:57.509Z,4.00
2023-05-01T03:44:57.621Z,4.00
2023-05-01T03:45:57.777Z,4.00
2023-05-01T03:46:57.926Z,4.00
2023-05-01T03:47:58.131Z,8.00
2023-05-01T03:48:58.150Z,8.00
2023-05-01T03:49:58.537Z,8.00
2023-05-01T03:50:58.524Z,8.00
2023-05-01T03:51:58.864Z,12.00
2023-05-01T03:52:58.790Z,16.00
2023-05-01T03:53:58.834Z,20.00
2023-05-01T03:54:58.914Z,20.00
2023-05-01T03:55:59.131Z,20.00
2023-05-01T03:56:59.184Z,24.00
2023-05-01T03:57:59.276Z,28.00
2023-05-01T03:58:59.424Z,32.00
2023-05-01T03:59:59.567Z,36.00
2023-05-01T04:00:59.753Z,44.00
2023-05-01T04:01:59.969Z,48.00
2023-05-01T04:03:00.016Z,48.00
2023-05-01T04:04:00.178Z,56.00
2023-05-01T04:05:00.231Z,64.00
2023-05-01T04:06:00.305Z,72.00
2023-05-01T04:07:00.423Z,76.00
2023-05-01T04:08:00.532Z,84.00
2023-05-01T04:09:00.731Z,96.00
2023-05-01T04:10:00.859Z,104.00
2023-05-01T04:11:00.894Z,112.00
2023-05-01T04:12:01.040Z,124.00
2023-05-01T04:13:01.219Z,136.00
2023-05-01T04:14:01.344Z,152.00
2023-05-01T04:15:01.520Z,172.00
2023-05-01T04:16:01.689Z,188.00
2023-05-01T04:17:01.772Z,208.00
2023-05-01T04:18:02.006Z,236.00
2023-05-01T04:19:02.057Z,256.00
2023-05-01T04:20:02.184Z,284.00
2023-05-01T04:21:02.253Z,316.00
2023-05-01T04:22:02.429Z,340.00
2023-05-01T04:23:02.580Z,364.00
2023-05-01T04:24:02.719Z,392.00
2023-05-01T04:25:02.824Z,440.00
2023-05-01T04:26:02.862Z,444.00
2023-05-01T04:27:03.074Z,480.00
2023-05-01T04:28:03.160Z,516.00
2023-05-01T04:29:03.209Z,520.00
2023-05-01T04:30:03.466Z,572.00
2023-05-01T04:31:03.492Z,600.00
2023-05-01T04:32:03.616Z,620.00
2023-05-01T04:33:03.789Z,616.00
2023-05-01T04:34:03.780Z,652.00
2023-05-01T04:35:04.329Z,676.00
2023-05-01T04:36:04.022Z,760.00
2023-05-01T04:37:04.156Z,740.00
2023-05-01T04:38:04.230Z,700.00
2023-05-01T04:39:04.331Z,704.00
2023-05-01T04:40:04.577Z,740.00
2023-05-01T04:41:04.556Z,696.00
2023-05-01T04:42:04.714Z,752.00
2023-05-01T04:43:04.800Z,764.00
2023-05-01T04:44:05.173Z,800.00
2023-05-01T04:45:05.070Z,828.00
2023-05-01T04:46:05.507Z,840.00
2023-05-01T04:47:05.491Z,872.00
2023-05-01T04:48:05.438Z,888.00
2023-05-01T04:49:05.655Z,904.00
2023-05-01T04:50:05.900Z,896.00
2023-05-01T04:51:05.830Z,904.00
2023-05-01T04:52:06.133Z,940.00
2023-05-01T04:53:06.114Z,908.00
2023-05-01T04:54:06.266Z,880.00
2023-05-01T04:55:06.373Z,844.00
2023-05-01T04:56:06.523Z,928.00
2023-05-01T04:57:06.623Z,1000.00
2023-05-01T04:58:06.759Z,1020.00
2023-05-01T04:59:06.901Z,1032.00
2023-05-01T05:00:06.988Z,1056.00
2023-05-01T05:01:07.164Z,1064.00
2023-05-01T05:02:07.253Z,1072.00
2023-05-01T05:03:07.613Z,1048.00
2023-05-01T05:04:07.585Z,1112.00
2023-05-01T05:05:07.662Z,1176.00
2023-05-01T05:06:07.859Z,1132.00
2023-05-01T05:07:07.889Z,1176.00
2023-05-01T05:08:08.099Z,1200.00
2023-05-01T05:09:08.205Z,1244.00
2023-05-01T05:10:08.382Z,1188.00
2023-05-01T05:11:08.561Z,1224.00
2023-05-01T05:12:08.613Z,1228.00
2023-05-01T05:13:08.728Z,1280.00
2023-05-01T05:14:08.823Z,1340.00
2023-05-01T05:15:08.936Z,1392.00
2023-05-01T05:16:09.082Z,1416.00
2023-05-01T05:17:09.378Z,1372.00
2023-05-01T05:18:09.519Z,1344.00
2023-05-01T05:19:09.498Z,1412.00
2023-05-01T05:20:09.601Z,1456.00
2023-05-01T05:21:09.865Z,1532.00
2023-05-01T05:22:09.946Z,1572.00
2023-05-01T05:23:09.990Z,1672.00
2023-05-01T05:24:10.233Z,1684.00
2023-05-01T05:25:10.272Z,1740.00
2023-05-01T05:26:10.427Z,1892.00
2023-05-01T05:27:10.578Z,1780.00
2023-05-01T05:28:10.699Z,1768.00
2023-05-01T05:29:11.096Z,1844.00
2023-05-01T05:30:10.992Z,1944.00
2023-05-01T05:31:11.086Z,2056.00
2023-05-01T05:32:11.234Z,2128.00
2023-05-01T05:33:11.347Z,2128.00
2023-05-01T05:34:11.462Z,2100.00
2023-05-01T05:35:11.516Z,2064.00
2023-05-01T05:36:11.660Z,2104.00
2023-05-01T05:37:11.850Z,2160.00
2023-05-01T05:38:12.016Z,2184.00
2023-05-01T05:39:12.091Z,2224.00
2023-05-01T05:40:12.202Z,2236.00
2023-05-01T05:41:12.437Z,2340.00
2023-05-01T05:42:12.496Z,2380.00
2023-05-01T05:43:12.687Z,2440.00
2023-05-01T05:44:12.933Z,2564.00
2023-05-01T05:45:13.016Z,2696.00
2023-05-01T05:46:13.065Z,3020.00
2023-05-01T05:47:13.207Z,2784.00
2023-05-01T05:48:13.747Z,2820.00
2023-05-01T05:49:13.425Z,2892.00
2023-05-01T05:50:13.717Z,2880.00
2023-05-01T05:51:13.713Z,3068.00
2023-05-01T05:52:13.873Z,3056.00
2023-05-01T05:53:14.011Z,3204.00
2023-05-01T05:54:14.062Z,3352.00
2023-05-01T05:55:14.494Z,3396.00
2023-05-01T05:56:14.348Z,3552.00
2023-05-01T05:57:14.460Z,3556.00
2023-05-01T05:58:14.643Z,3592.00
2023-05-01T05:59:16.701Z,3712.00
2023-05-01T06:00:15.515Z,3760.00
2023-05-01T06:01:15.004Z,3792.00
2023-05-01T06:02:15.159Z,3800.00
2023-05-01T06:03:15.349Z,3804.00
2023-05-01T06:04:15.360Z,3832.00
2023-05-01T06:05:15.609Z,3776.00
2023-05-01T06:06:15.669Z,3696.00
2023-05-01T06:07:15.731Z,3832.00
2023-05-01T06:08:15.910Z,3896.00
2023-05-01T06:09:16.031Z,4056.00
2023-05-01T06:10:16.480Z,4392.00
2023-05-01T06:11:16.424Z,4544.00
2023-05-01T06:12:16.513Z,4500.00
2023-05-01T06:13:16.526Z,4724.00
2023-05-01T06:14:16.679Z,4768.00
2023-05-01T06:15:16.912Z,4880.00
2023-05-01T06:16:16.910Z,5040.00
2023-05-01T06:17:17.129Z,5348.00
2023-05-01T06:18:17.275Z,6064.00
2023-05-01T06:19:17.340Z,5432.00
2023-05-01T06:20:17.469Z,5764.00
2023-05-01T06:21:17.607Z,6296.00
2023-05-01T06:22:17.663Z,6128.00
2023-05-01T06:23:17.831Z,6276.00
2023-05-01T06:24:18.053Z,6264.00
2023-05-01T06:25:18.117Z,6108.00
2023-05-01T06:26:18.204Z,6096.00
2023-05-01T06:27:18.285Z,6232.00
2023-05-01T06:28:18.650Z,6196.00
2023-05-01T06:29:18.842Z,6096.00
2023-05-01T06:30:18.674Z,6096.00
2023-05-01T06:31:18.910Z,5816.00
2023-05-01T06:32:18.977Z,5796.00
2023-05-01T06:33:19.148Z,5772.00
2023-05-01T06:34:19.500Z,6076.00
2023-05-01T06:35:19.573Z,6096.00
2023-05-01T06:36:19.760Z,6252.00
2023-05-01T06:37:19.665Z,6408.00
2023-05-01T06:38:19.774Z,6592.00
2023-05-01T06:39:20.122Z,6828.00
2023-05-01T06:40:20.555Z,6920.00
2023-05-01T06:41:20.416Z,7120.00
2023-05-01T06:42:20.317Z,7264.00
2023-05-01T06:43:20.611Z,7256.00
2023-05-01T06:44:21.292Z,7272.00
2023-05-01T06:45:20.848Z,7496.00
2023-05-01T06:46:21.253Z,7308.00
2023-05-01T06:47:20.951Z,7376.00
2023-05-01T06:48:21.256Z,8316.00
2023-05-01T06:49:21.139Z,7552.00
2023-05-01T06:50:21.268Z,7524.00
2023-05-01T06:51:21.370Z,7608.00
2023-05-01T06:52:21.516Z,7592.00
2023-05-01T06:53:22.013Z,7712.00
2023-05-01T06:54:21.758Z,8132.00
2023-05-01T06:55:21.863Z,8680.00
2023-05-01T06:56:22.026Z,8804.00
2023-05-01T06:57:22.292Z,8436.00
2023-05-01T06:58:24.303Z,8940.00
2023-05-01T06:59:22.351Z,8572.00
2023-05-01T07:00:22.559Z,9324.00
2023-05-01T07:01:22.752Z,8600.00
2023-05-01T07:02:22.927Z,8988.00
2023-05-01T07:03:23.403Z,9120.00
2023-05-01T07:04:23.027Z,9436.00
2023-05-01T07:05:25.971Z,9732.00
2023-05-01T07:06:23.412Z,9804.00
2023-05-01T07:07:23.465Z,9532.00
2023-05-01T07:08:23.542Z,9372.00
2023-05-01T07:09:23.674Z,9292.00
2023-05-01T07:10:23.798Z,9344.00
2023-05-01T07:11:24.249Z,9536.00
2023-05-01T07:12:24.065Z,10064.00
2023-05-01T07:13:24.173Z,9996.00
2023-05-01T07:14:24.378Z,9600.00
2023-05-01T07:15:24.478Z,9444.00
2023-05-01T07:16:24.577Z,9672.00
2023-05-01T07:17:24.906Z,9956.00
2023-05-01T07:18:24.766Z,9916.00
2023-05-01T07:19:24.875Z,9984.00
2023-05-01T07:20:25.036Z,9964.00
2023-05-01T07:21:25.432Z,10544.00
2023-05-01T07:22:25.392Z,10628.00
2023-05-01T07:23:25.382Z,10856.00
2023-05-01T07:24:25.520Z,10584.00
2023-05-01T07:25:25.691Z,10152.00
2023-05-01T07:26:25.815Z,10348.00
2023-05-01T07:27:25.876Z,10080.00
2023-05-01T07:28:26.015Z,10000.00
2023-05-01T07:29:26.249Z,10180.00
2023-05-01T07:30:26.370Z,10120.00
2023-05-01T07:31:26.544Z,10448.00
2023-05-01T07:32:26.560Z,10848.00
2023-05-01T07:33:26.743Z,10792.00
2023-05-01T07:34:26.850Z,10832.00
2023-05-01T07:35:26.975Z,10800.00
2023-05-01T07:36:27.134Z,10912.00
2023-05-01T07:37:27.300Z,10640.00
2023-05-01T07:38:27.508Z,11224.00
2023-05-01T07:39:27.509Z,11712.00
2023-05-01T07:40:27.838Z,11872.00
2023-05-01T07:41:27.861Z,11428.00
2023-05-01T07:42:27.874Z,12424.00
2023-05-01T07:43:28.021Z,13040.00
2023-05-01T07:44:28.165Z,13308.00
2023-05-01T07:45:28.577Z,14732.00
2023-05-01T07:46:28.676Z,13404.00
2023-05-01T07:47:28.835Z,13208.00
2023-05-01T07:48:28.752Z,12976.00
2023-05-01T07:49:28.878Z,12852.00
2023-05-01T07:50:29.151Z,12832.00
2023-05-01T07:51:29.518Z,12768.00
2023-05-01T07:52:29.317Z,12936.00
2023-05-01T07:53:29.400Z,13340.00
2023-05-01T07:54:29.496Z,14036.00
2023-05-01T07:55:29.612Z,14716.00
2023-05-01T07:56:29.698Z,14432.00
2023-05-01T07:57:30.023Z,16864.00
2023-05-01T07:58:29.992Z,18912.00
2023-05-01T07:59:30.333Z,22976.00
2023-05-01T08:00:30.437Z,20320.00
2023-05-01T08:01:30.334Z,22336.00
2023-05-01T08:02:30.833Z,27456.00
2023-05-01T08:03:30.899Z,29504.00
2023-05-01T08:04:30.763Z,38048.00
2023-05-01T08:05:30.855Z,40768.00
2023-05-01T08:06:30.993Z,37440.00
2023-05-01T08:07:31.135Z,23072.00
2023-05-01T08:08:31.270Z,26496.00
2023-05-01T08:09:31.448Z,35072.00
2023-05-01T08:10:31.520Z,29568.00
2023-05-01T08:11:31.694Z,25472.00
2023-05-01T08:12:31.975Z,34592.00
2023-05-01T08:13:31.965Z,38272.00
2023-05-01T08:14:31.954Z,54048.00
2023-05-01T08:15:32.143Z,65760.00
2023-05-01T08:16:32.252Z,72192.00
2023-05-01T08:17:32.408Z,66912.00
2023-05-01T08:18:32.476Z,44928.00
2023-05-01T08:19:32.877Z,54848.00
2023-05-01T08:20:32.766Z,43616.00
2023-05-01T08:21:32.824Z,20224.00
2023-05-01T08:22:33.912Z,24224.00
2023-05-01T08:23:33.085Z,20192.00
2023-05-01T08:24:33.223Z,15008.00
2023-05-01T08:25:33.391Z,14944.00
2023-05-01T08:26:33.480Z,14764.00
2023-05-01T08:27:33.620Z,13176.00
2023-05-01T08:28:33.810Z,13180.00
2023-05-01T08:29:33.838Z,13036.00
2023-05-01T08:30:33.967Z,13904.00
2023-05-01T08:31:34.558Z,13824.00
2023-05-01T08:32:34.402Z,14020.00
2023-05-01T08:33:34.397Z,14152.00
2023-05-01T08:34:34.564Z,14428.00
2023-05-01T08:35:34.666Z,14416.00
2023-05-01T08:36:34.796Z,14340.00
2023-05-01T08:37:34.873Z,14328.00
2023-05-01T08:38:35.047Z,14504.00
2023-05-01T08:39:35.163Z,14700.00
2023-05-01T08:40:36.025Z,14996.00
2023-05-01T08:41:35.428Z,14876.00
2023-05-01T08:42:35.540Z,14848.00
2023-05-01T08:43:35.643Z,14684.00
2023-05-01T08:44:35.760Z,14512.00
2023-05-01T08:45:35.911Z,14308.00
2023-05-01T08:46:36.082Z,14580.00
2023-05-01T08:47:36.147Z,14444.00
2023-05-01T08:48:36.345Z,14640.00
2023-05-01T08:49:36.416Z,14876.00
2023-05-01T08:50:36.605Z,14908.00
2023-05-01T08:51:36.702Z,14528.00
2023-05-01T08:52:36.808Z,14060.00
2023-05-01T08:53:37.002Z,13836.00
2023-05-01T08:54:37.103Z,13788.00
2023-05-01T08:55:37.288Z,14000.00
2023-05-01T08:56:37.411Z,14336.00
2023-05-01T08:57:37.490Z,14596.00
2023-05-01T08:58:37.712Z,14484.00
2023-05-01T08:59:37.774Z,14564.00
2023-05-01T09:00:37.912Z,14328.00
2023-05-01T09:01:38.321Z,14212.00
2023-05-01T09:02:38.273Z,13988.00
2023-05-01T09:03:38.456Z,13984.00
2023-05-01T09:04:38.446Z,14244.00
2023-05-01T09:05:38.600Z,14280.00
2023-05-01T09:06:38.909Z,14560.00
2023-05-01T09:07:38.867Z,14448.00
2023-05-01T09:08:39.077Z,14432.00
2023-05-01T09:09:39.142Z,14412.00
2023-05-01T09:10:39.228Z,14492.00
2023-05-01T09:11:39.418Z,14596.00
2023-05-01T09:12:39.541Z,14624.00
2023-05-01T09:13:39.689Z,14556.00
2023-05-01T09:14:39.906Z,14416.00
2023-05-01T09:15:39.915Z,14248.00
2023-05-01T09:16:40.185Z,14336.00
2023-05-01T09:17:40.355Z,13824.00
2023-05-01T09:18:40.288Z,13392.00
2023-05-01T09:19:40.731Z,12928.00
2023-05-01T09:20:40.646Z,12624.00
2023-05-01T09:21:40.696Z,12436.00
2023-05-01T09:22:40.808Z,12632.00
2023-05-01T09:23:41.016Z,12780.00
2023-05-01T09:24:41.101Z,12780.00
2023-05-01T09:25:41.220Z,12780.00
2023-05-01T09:26:41.323Z,12780.00
2023-05-01T09:27:41.539Z,12760.00
2023-05-01T09:28:41.690Z,12732.00
2023-05-01T09:29:41.715Z,12796.00
2023-05-01T09:30:41.861Z,12748.00
2023-05-01T09:31:42.047Z,12772.00
2023-05-01T09:32:42.805Z,12736.00
2023-05-01T09:33:42.304Z,12964.00
2023-05-01T09:34:42.378Z,13120.00
2023-05-01T09:35:42.551Z,13404.00
2023-05-01T09:36:42.757Z,13664.00
2023-05-01T09:37:42.769Z,13908.00
2023-05-01T09:38:43.409Z,14144.00
2023-05-01T09:39:43.423Z,14464.00
2023-05-01T09:40:43.272Z,14844.00
2023-05-01T09:41:43.328Z,15036.00
2023-05-01T09:42:43.424Z,14960.00
2023-05-01T09:43:43.828Z,14960.00
2023-05-01T09:44:43.686Z,13984.00
2023-05-01T09:45:43.863Z,14048.00
2023-05-01T09:46:44.071Z,14976.00
2023-05-01T09:47:44.233Z,14272.00
2023-05-01T09:48:44.216Z,15584.00
2023-05-01T09:49:44.367Z,16512.00
2023-05-01T09:50:44.695Z,17568.00
2023-05-01T09:51:44.632Z,16928.00
2023-05-01T09:52:44.748Z,15328.00
2023-05-01T09:53:44.931Z,15744.00
2023-05-01T09:54:45.385Z,17888.00
2023-05-01T09:55:45.295Z,16736.00
2023-05-01T09:56:45.333Z,16736.00
2023-05-01T09:57:45.360Z,14880.00
2023-05-01T09:58:45.697Z,14304.00
2023-05-01T09:59:45.688Z,13888.00
2023-05-01T10:00:45.790Z,14656.00
2023-05-01T10:01:46.270Z,14880.00
2023-05-01T10:02:46.091Z,16416.00
2023-05-01T10:03:46.370Z,17088.00
2023-05-01T10:04:46.300Z,18176.00
2023-05-01T10:05:46.442Z,24192.00
2023-05-01T10:06:46.614Z,18080.00
2023-05-01T10:07:46.706Z,17088.00
2023-05-01T10:08:47.015Z,17856.00
2023-05-01T10:09:47.014Z,17920.00
2023-05-01T10:10:47.267Z,18016.00
2023-05-01T10:11:47.683Z,17920.00
2023-05-01T10:12:47.392Z,17696.00
2023-05-01T10:13:47.521Z,17632.00
2023-05-01T10:14:48.212Z,19072.00
2023-05-01T10:15:47.936Z,19520.00
2023-05-01T10:16:48.137Z,20000.00
2023-05-01T10:17:48.535Z,20192.00
2023-05-01T10:18:48.740Z,19296.00
2023-05-01T10:19:50.892Z,18720.00
2023-05-01T10:20:48.514Z,20000.00
2023-05-01T10:21:48.824Z,26464.00
2023-05-01T10:22:49.565Z,17952.00
2023-05-01T10:23:48.807Z,17152.00
2023-05-01T10:24:49.072Z,16832.00
2023-05-01T10:25:49.079Z,17440.00
2023-05-01T10:26:49.153Z,17248.00
2023-05-01T10:27:49.328Z,16832.00
2023-05-01T10:28:49.585Z,17216.00
2023-05-01T10:29:49.951Z,17856.00
2023-05-01T10:30:49.727Z,17984.00
2023-05-01T10:31:49.844Z,20032.00
2023-05-01T10:32:50.013Z,23040.00
2023-05-01T10:33:50.297Z,20576.00
2023-05-01T10:34:50.248Z,23968.00
2023-05-01T10:35:50.364Z,22208.00
2023-05-01T10:36:50.539Z,23904.00
2023-05-01T10:37:50.768Z,22848.00
2023-05-01T10:38:51.113Z,28384.00
2023-05-01T10:39:50.923Z,27744.00
2023-05-01T10:40:51.418Z,54592.00
2023-05-01T10:41:51.197Z,47680.00
2023-05-01T10:42:51.408Z,62560.00
2023-05-01T10:43:51.415Z,30176.00
2023-05-01T10:44:51.594Z,52544.00
2023-05-01T10:45:51.704Z,27968.00
2023-05-01T10:46:51.879Z,28288.00
2023-05-01T10:47:51.954Z,47808.00
2023-05-01T10:48:52.084Z,46592.00
2023-05-01T10:49:52.172Z,30016.00
2023-05-01T10:50:52.280Z,44736.00
2023-05-01T10:51:52.409Z,36256.00
2023-05-01T10:52:52.597Z,24192.00
2023-05-01T10:53:52.679Z,20704.00
2023-05-01T10:54:53.067Z,20192.00
2023-05-01T10:55:52.880Z,19968.00
2023-05-01T10:56:52.986Z,18752.00
2023-05-01T10:57:53.135Z,17568.00
2023-05-01T10:58:53.261Z,17792.00
2023-05-01T10:59:53.891Z,17376.00
2023-05-01T11:00:53.566Z,16960.00
2023-05-01T11:01:54.202Z,17216.00
2023-05-01T11:02:54.027Z,15264.00
2023-05-01T11:03:53.951Z,13952.00
2023-05-01T11:04:54.407Z,15000.00
2023-05-01T11:05:54.209Z,14604.00
2023-05-01T11:06:54.368Z,14376.00
2023-05-01T11:07:54.482Z,14336.00
2023-05-01T11:08:54.660Z,14476.00
2023-05-01T11:09:55.236Z,14836.00
2023-05-01T11:10:54.980Z,13888.00
2023-05-01T11:11:54.998Z,16192.00
2023-05-01T11:12:55.147Z,16992.00
2023-05-01T11:13:55.276Z,17344.00
2023-05-01T11:14:56.127Z,18496.00
2023-05-01T11:15:55.745Z,19680.00
2023-05-01T11:16:55.695Z,20096.00
2023-05-01T11:17:55.865Z,22720.00
2023-05-01T11:18:55.882Z,24416.00
2023-05-01T11:19:56.030Z,23808.00
2023-05-01T11:20:56.181Z,22848.00
2023-05-01T11:21:56.376Z,23232.00
2023-05-01T11:22:56.510Z,24544.00
2023-05-01T11:23:56.507Z,24288.00
2023-05-01T11:24:57.166Z,26336.00
2023-05-01T11:25:56.974Z,29152.00
2023-05-01T11:26:56.900Z,30144.00
2023-05-01T11:27:57.063Z,27840.00
2023-05-01T11:28:57.271Z,27456.00
2023-05-01T11:29:57.315Z,29184.00
2023-05-01T11:30:57.502Z,36672.00
2023-05-01T11:31:57.546Z,29600.00
2023-05-01T11:32:57.725Z,31552.00
2023-05-01T11:33:57.810Z,29792.00
2023-05-01T11:34:58.280Z,29856.00
2023-05-01T11:35:58.291Z,27680.00
2023-05-01T11:36:58.467Z,26432.00
2023-05-01T11:37:58.326Z,27840.00
2023-05-01T11:38:58.751Z,28000.00
2023-05-01T11:39:58.581Z,29536.00
2023-05-01T11:40:58.848Z,26880.00
2023-05-01T11:41:58.945Z,26528.00
2023-05-01T11:42:59.260Z,26368.00
2023-05-01T11:43:59.410Z,24800.00
2023-05-01T11:44:59.440Z,24416.00
2023-05-01T11:45:59.426Z,25568.00
2023-05-01T11:46:59.441Z,23808.00
2023-05-01T11:48:02.900Z,23264.00
2023-05-01T11:48:59.709Z,23424.00
2023-05-01T11:49:59.858Z,24768.00
2023-05-01T11:50:59.987Z,23712.00
2023-05-01T11:52:00.123Z,24352.00
2023-05-01T11:53:00.206Z,22944.00
2023-05-01T11:54:00.384Z,24128.00
2023-05-01T11:55:00.648Z,23520.00
2023-05-01T11:56:00.561Z,30784.00
2023-05-01T11:57:00.685Z,29504.00
2023-05-01T11:58:00.843Z,32320.00
2023-05-01T11:59:00.948Z,30016.00
2023-05-01T12:00:01.133Z,29312.00
2023-05-01T12:01:01.286Z,29376.00
2023-05-01T12:02:01.381Z,21120.00
2023-05-01T12:03:01.632Z,18784.00
2023-05-01T12:04:01.652Z,16576.00
2023-05-01T12:05:01.993Z,15244.00
2023-05-01T12:06:01.863Z,14156.00
2023-05-01T12:07:01.949Z,14056.00
2023-05-01T12:08:02.084Z,13500.00
2023-05-01T12:09:02.185Z,12640.00
2023-05-01T12:10:02.318Z,17312.00
2023-05-01T12:11:02.489Z,12500.00
2023-05-01T12:12:02.568Z,13588.00
2023-05-01T12:13:02.783Z,18720.00
2023-05-01T12:14:02.891Z,12676.00
2023-05-01T12:15:03.024Z,17760.00
2023-05-01T12:16:03.130Z,15100.00
2023-05-01T12:17:03.347Z,18560.00
2023-05-01T12:18:03.521Z,19776.00
2023-05-01T12:19:03.506Z,11060.00
2023-05-01T12:20:03.680Z,11532.00
2023-05-01T12:21:03.762Z,9432.00
2023-05-01T12:22:03.880Z,10880.00